Time;durP1;ratioP1;P1;durP2;ratioP2;P2;SDS_P1;SDS_P2;PMS_P1;PMS_P2;Temp;Humidity;BMP_temperature;BMP_pressure;BME280_temperature;BME280_humidity;BME280_pressure;Samples;Min_cycle;Max_cycle;Signal;HPM_P1;HPM_P2
2023/09/08 00:01:12;;;;;;;11.70;9.32;;;14.90;99.90;;;;;;4898691;29;20258;-69
2023/09/08 00:03:39;;;;;;;10.38;9.35;;;14.80;99.90;;;;;;4898530;29;20674;-69
2023/09/08 00:06:06;;;;;;;11.37;10.27;;;14.50;99.90;;;;;;4898357;29;20619;-69
2023/09/08 00:08:32;;;;;;;10.93;9.83;;;14.50;99.90;;;;;;4898635;29;20255;-69
2023/09/08 00:11:00;;;;;;;11.27;9.77;;;14.70;99.90;;;;;;4898584;29;20207;-69
2023/09/08 00:13:27;;;;;;;11.70;10.70;;;14.80;99.90;;;;;;4898415;29;20625;-69
2023/09/08 00:15:53;;;;;;;10.70;9.70;;;14.80;99.90;;;;;;4898308;29;20235;-69
2023/09/08 00:18:20;;;;;;;10.83;9.83;;;14.70;99.90;;;;;;4898268;29;20263;-69
2023/09/08 00:20:47;;;;;;;10.77;9.83;;;14.60;99.90;;;;;;4898153;29;20690;-69
2023/09/08 00:23:13;;;;;;;12.77;10.60;;;14.60;99.90;;;;;;4898390;29;20279;-69
2023/09/08 00:25:40;;;;;;;11.27;10.17;;;14.70;99.90;;;;;;4898265;29;20199;-69
2023/09/08 00:28:08;;;;;;;10.87;9.77;;;14.60;99.90;;;;;;4898105;29;20699;-69
2023/09/08 00:30:35;;;;;;;11.23;10.13;;;14.40;99.90;;;;;;4898154;29;20259;-69
2023/09/08 00:33:01;;;;;;;11.20;10.10;;;14.30;99.90;;;;;;4897905;29;20203;-69
2023/09/08 00:35:28;;;;;;;11.30;10.10;;;14.20;99.90;;;;;;4898169;29;20231;-69
2023/09/08 00:37:55;;;;;;;12.33;10.93;;;14.00;99.90;;;;;;4898045;29;20263;-69
2023/09/08 00:40:21;;;;;;;11.87;10.53;;;14.20;99.90;;;;;;4898120;29;20203;-69
2023/09/08 00:42:48;;;;;;;12.27;10.93;;;14.10;99.90;;;;;;4898046;29;20207;-69
2023/09/08 00:45:16;;;;;;;11.97;10.73;;;14.10;99.90;;;;;;4897980;29;20298;-69
2023/09/08 00:47:43;;;;;;;12.20;10.53;;;13.90;99.90;;;;;;4897839;29;20559;-69
2023/09/08 00:50:10;;;;;;;12.23;11.13;;;13.90;99.90;;;;;;4898198;29;20203;-69
2023/09/08 00:52:37;;;;;;;13.73;10.73;;;13.80;99.90;;;;;;4897895;29;20263;-69
2023/09/08 00:55:04;;;;;;;12.17;10.97;;;13.80;99.90;;;;;;4897851;29;20242;-69
2023/09/08 00:57:30;;;;;;;11.00;9.90;;;13.60;99.90;;;;;;4897799;29;20214;-69
2023/09/08 00:59:57;;;;;;;13.60;11.47;;;13.60;99.90;;;;;;4897647;29;20246;-69
2023/09/08 01:02:25;;;;;;;12.73;11.27;;;13.80;99.90;;;;;;4897613;29;20698;-69
2023/09/08 01:04:52;;;;;;;13.23;10.63;;;13.90;99.90;;;;;;4897919;29;20218;-69
2023/09/08 01:07:20;;;;;;;14.30;11.67;;;13.90;99.90;;;;;;4897406;29;20259;-69
2023/09/08 01:09:48;;;;;;;12.70;11.47;;;13.80;99.90;;;;;;4897204;29;20211;-69
2023/09/08 01:12:16;;;;;;;12.20;10.70;;;13.50;99.90;;;;;;4897531;29;20671;-69
2023/09/08 01:14:42;;;;;;;14.33;11.37;;;13.30;99.90;;;;;;4897661;29;20227;-69
2023/09/08 01:17:09;;;;;;;13.57;11.17;;;13.30;99.90;;;;;;4897499;29;20207;-70
2023/09/08 01:19:37;;;;;;;12.93;11.13;;;13.10;99.90;;;;;;4897499;29;20596;-69
2023/09/08 01:22:24;;;;;;;12.93;11.63;;;13.00;99.90;;;;;;4897639;29;20199;-69
2023/09/08 01:25:22;;;;;;;13.10;11.13;;;13.10;99.90;;;;;;4897626;29;20250;-69
2023/09/08 01:27:51;;;;;;;13.57;11.43;;;13.00;99.90;;;;;;4897616;29;20199;-69
2023/09/08 01:30:19;;;;;;;13.60;11.87;;;13.10;99.90;;;;;;4897400;29;20612;-70
2023/09/08 01:32:46;;;;;;;13.10;11.70;;;13.30;99.90;;;;;;4897486;29;20206;-69
2023/09/08 01:35:14;;;;;;;13.17;11.73;;;13.30;99.90;;;;;;4897282;29;20262;-69
2023/09/08 01:37:42;;;;;;;15.53;11.83;;;13.30;99.90;;;;;;4897543;29;20203;-69
2023/09/08 01:40:09;;;;;;;13.10;11.70;;;13.40;99.90;;;;;;4897571;29;20239;-69
2023/09/08 01:42:37;;;;;;;14.80;12.17;;;13.30;99.90;;;;;;4897546;29;20214;-69
2023/09/08 01:45:05;;;;;;;14.33;11.83;;;13.30;99.90;;;;;;4897240;29;20567;-69
2023/09/08 01:47:32;;;;;;;13.47;12.10;;;13.10;99.90;;;;;;4897301;29;20207;-69
2023/09/08 01:49:58;;;;;;;14.77;12.13;;;13.10;99.90;;;;;;4897167;29;20257;-69
2023/09/08 01:52:25;;;;;;;16.33;12.63;;;13.10;99.90;;;;;;4897463;29;20604;-69
2023/09/08 01:54:52;;;;;;;13.53;12.17;;;13.00;99.90;;;;;;4897280;29;20235;-70
2023/09/08 01:57:19;;;;;;;16.07;13.00;;;12.90;99.90;;;;;;4897110;29;20666;-69
2023/09/08 01:59:47;;;;;;;14.40;12.97;;;12.70;99.90;;;;;;4897285;29;20258;-69
2023/09/08 02:02:14;;;;;;;14.97;12.63;;;12.70;99.90;;;;;;4897157;29;20211;-69
2023/09/08 02:04:41;;;;;;;16.83;13.03;;;12.70;99.90;;;;;;4897147;29;20198;-69
2023/09/08 02:07:07;;;;;;;18.30;13.90;;;12.60;99.90;;;;;;4897369;29;20207;-69
2023/09/08 02:09:36;;;;;;;18.00;14.27;;;12.50;99.90;;;;;;4897333;29;20424;-69
2023/09/08 02:12:04;;;;;;;16.03;14.30;;;12.30;99.90;;;;;;4897243;29;20203;-69
2023/09/08 02:14:30;;;;;;;15.90;14.30;;;12.30;99.90;;;;;;4897522;29;20207;-69
2023/09/08 02:16:58;;;;;;;17.60;15.70;;;12.20;99.90;;;;;;4896849;29;20648;-69
2023/09/08 02:19:25;;;;;;;17.17;14.53;;;12.10;99.90;;;;;;4898018;29;20266;-68
2023/09/08 02:21:51;;;;;;;15.93;14.23;;;12.10;99.90;;;;;;4900422;29;20199;-69
2023/09/08 02:24:18;;;;;;;15.57;13.77;;;12.10;99.90;;;;;;4900602;29;20255;-69
2023/09/08 02:26:45;;;;;;;15.80;14.20;;;12.10;99.90;;;;;;4900349;29;20211;-69
2023/09/08 02:29:11;;;;;;;16.13;14.53;;;12.40;99.90;;;;;;4900312;29;20199;-69
2023/09/08 02:31:38;;;;;;;16.17;14.17;;;12.50;99.90;;;;;;4900226;29;20267;-69
2023/09/08 02:34:06;;;;;;;16.00;14.20;;;12.40;99.90;;;;;;4900493;29;20263;-69
2023/09/08 02:36:32;;;;;;;16.97;14.63;;;12.20;99.90;;;;;;4900325;29;20294;-69
2023/09/08 02:38:59;;;;;;;15.03;13.60;;;12.10;99.90;;;;;;4900216;29;20207;-69
2023/09/08 02:41:26;;;;;;;16.97;15.37;;;12.10;99.90;;;;;;4900200;29;20199;-68
2023/09/08 02:43:52;;;;;;;16.47;14.50;;;12.10;99.90;;;;;;4900175;29;20203;-69
2023/09/08 02:46:19;;;;;;;17.13;15.20;;;12.30;99.90;;;;;;4899745;29;20211;-69
2023/09/08 02:48:45;;;;;;;16.53;14.53;;;12.40;99.90;;;;;;4900154;29;20258;-68
2023/09/08 02:51:13;;;;;;;16.80;14.57;;;12.50;99.90;;;;;;4900138;29;20278;-69
2023/09/08 02:53:40;;;;;;;15.57;13.97;;;12.50;99.90;;;;;;4899830;29;20239;-69
2023/09/08 02:56:05;;;;;;;14.30;12.80;;;12.50;99.90;;;;;;4899813;29;20230;-69
2023/09/08 02:58:33;;;;;;;17.37;13.43;;;12.50;99.90;;;;;;4899810;29;20715;-69
2023/09/08 03:01:10;;;;;;;15.37;13.83;;;12.40;99.90;;;;;;4899656;29;20203;-69
2023/09/08 03:03:38;;;;;;;14.90;13.40;;;12.40;99.90;;;;;;4900095;29;20203;-69
2023/09/08 03:06:04;;;;;;;16.30;14.70;;;12.50;99.90;;;;;;4900257;29;20583;-69
2023/09/08 03:08:32;;;;;;;16.47;13.83;;;12.50;99.90;;;;;;4899563;29;20655;-69
2023/09/08 03:10:59;;;;;;;14.17;12.77;;;12.30;99.90;;;;;;4899557;29;20258;-69
2023/09/08 03:13:28;;;;;;;14.77;13.37;;;12.10;99.90;;;;;;4899424;29;20207;-69
2023/09/08 03:15:55;;;;;;;14.17;12.77;;;12.00;99.90;;;;;;4899563;29;20234;-69
2023/09/08 03:18:22;;;;;;;14.87;13.33;;;11.90;99.90;;;;;;4899384;29;20722;-69
2023/09/08 03:20:49;;;;;;;14.67;13.27;;;11.90;99.90;;;;;;4899447;29;20262;-69
2023/09/08 03:23:16;;;;;;;14.67;13.23;;;11.80;99.90;;;;;;4899387;29;20202;-69
2023/09/08 03:25:44;;;;;;;15.83;13.97;;;11.80;99.90;;;;;;4899293;29;20204;-69
2023/09/08 03:28:11;;;;;;;15.43;13.77;;;11.70;99.90;;;;;;4899199;29;20266;-69
2023/09/08 03:30:37;;;;;;;14.60;13.10;;;11.70;99.90;;;;;;4898600;29;20682;-69
2023/09/08 03:33:04;;;;;;;14.23;12.87;;;11.60;99.90;;;;;;4899163;29;20207;-69
2023/09/08 03:35:31;;;;;;;15.47;13.50;;;11.60;99.90;;;;;;4899107;29;20271;-69
2023/09/08 03:37:58;;;;;;;15.37;13.83;;;11.60;99.90;;;;;;4899120;29;20239;-69
2023/09/08 03:40:24;;;;;;;15.63;14.03;;;11.50;99.90;;;;;;4899024;29;20213;-69
2023/09/08 03:42:52;;;;;;;16.37;14.63;;;11.50;99.90;;;;;;4898937;29;20655;-69
2023/09/08 03:45:19;;;;;;;16.40;14.73;;;11.50;99.90;;;;;;4899006;29;20210;-69
2023/09/08 03:47:46;;;;;;;16.63;14.83;;;11.70;99.90;;;;;;4899100;29;20203;-69
2023/09/08 03:50:12;;;;;;;16.93;15.10;;;11.70;99.90;;;;;;4899049;29;20627;-69
2023/09/08 03:52:39;;;;;;;18.40;15.97;;;11.80;99.90;;;;;;4898831;29;20255;-69
2023/09/08 03:55:06;;;;;;;17.80;16.00;;;11.90;99.90;;;;;;4898525;29;20647;-69
2023/09/08 03:57:32;;;;;;;19.07;16.93;;;11.70;99.90;;;;;;4899142;29;20203;-69
2023/09/08 04:00:00;;;;;;;19.97;17.00;;;11.70;99.90;;;;;;4898753;29;20211;-69
2023/09/08 04:02:27;;;;;;;22.10;17.00;;;11.60;99.90;;;;;;4898692;29;20207;-69
2023/09/08 04:04:53;;;;;;;18.90;16.93;;;11.50;99.90;;;;;;4898525;29;20199;-69
2023/09/08 04:07:20;;;;;;;19.20;17.27;;;11.60;99.90;;;;;;4898529;29;20263;-69
2023/09/08 04:09:47;;;;;;;21.90;17.47;;;11.70;99.90;;;;;;4898452;29;20611;-69
2023/09/08 04:12:13;;;;;;;22.00;16.57;;;11.70;99.90;;;;;;4898533;29;20203;-69
2023/09/08 04:14:40;;;;;;;18.77;16.77;;;11.60;99.90;;;;;;4898488;29;20207;-68
2023/09/08 04:17:08;;;;;;;19.77;17.67;;;11.80;99.90;;;;;;4898405;29;20590;-68
2023/09/08 04:19:34;;;;;;;19.60;17.50;;;11.80;99.90;;;;;;4898285;29;20204;-69
2023/09/08 04:22:01;;;;;;;18.90;16.93;;;11.70;99.90;;;;;;4898292;29;20203;-69
2023/09/08 04:24:27;;;;;;;18.00;16.20;;;11.70;99.90;;;;;;4898132;29;20203;-69
2023/09/08 04:26:54;;;;;;;19.87;15.40;;;11.50;99.90;;;;;;4898381;29;20207;-70
2023/09/08 04:29:21;;;;;;;17.00;14.87;;;11.50;99.90;;;;;;4898387;29;20207;-69
2023/09/08 04:31:47;;;;;;;16.53;14.80;;;11.60;99.90;;;;;;4898105;29;20262;-69
2023/09/08 04:34:15;;;;;;;17.83;15.47;;;11.60;99.90;;;;;;4897910;29;20254;-69
2023/09/08 04:36:42;;;;;;;16.90;14.77;;;11.50;99.90;;;;;;4897857;29;20227;-69
2023/09/08 04:39:11;;;;;;;16.60;14.77;;;11.40;99.90;;;;;;4898108;29;20199;-69
2023/09/08 04:41:37;;;;;;;16.30;14.60;;;11.20;99.90;;;;;;4898127;29;20211;-69
2023/09/08 04:44:05;;;;;;;17.77;15.10;;;11.10;99.90;;;;;;4897842;29;20259;-69
2023/09/08 04:46:31;;;;;;;17.40;15.70;;;11.00;99.90;;;;;;4902057;29;20751;-69
2023/09/08 04:48:58;;;;;;;17.33;15.57;;;11.00;99.90;;;;;;4916773;29;20206;-69
2023/09/08 04:51:26;;;;;;;18.27;15.03;;;11.00;99.90;;;;;;4916296;29;20257;-69
2023/09/08 04:53:52;;;;;;;16.40;14.83;;;11.00;99.90;;;;;;4916637;29;20234;-70
2023/09/08 04:56:19;;;;;;;19.67;15.77;;;11.00;99.90;;;;;;4916664;29;20234;-70
2023/09/08 04:58:46;;;;;;;20.43;15.50;;;11.00;99.90;;;;;;4916612;29;20202;-70
2023/09/08 05:01:12;;;;;;;17.13;15.30;;;11.00;99.90;;;;;;4916380;29;20729;-70
2023/09/08 05:03:39;;;;;;;16.70;14.93;;;11.00;99.90;;;;;;4916641;29;20260;-70
2023/09/08 05:06:06;;;;;;;16.80;14.67;;;11.00;99.90;;;;;;4916492;29;20254;-70
2023/09/08 05:08:33;;;;;;;17.40;15.60;;;11.10;99.90;;;;;;4916710;29;20236;-72
2023/09/08 05:11:00;;;;;;;19.23;17.23;;;11.10;99.90;;;;;;4916473;29;20210;-69
2023/09/08 05:13:27;;;;;;;18.87;16.07;;;11.20;99.90;;;;;;4916407;29;20628;-69
2023/09/08 05:15:59;;;;;;;16.67;14.97;;;11.40;99.90;;;;;;4916452;29;20236;-69
2023/09/08 05:18:26;;;;;;;17.17;15.43;;;11.60;99.90;;;;;;4916372;29;20209;-69
2023/09/08 05:20:53;;;;;;;17.53;15.53;;;11.60;99.90;;;;;;4916475;29;20206;-70
2023/09/08 05:23:20;;;;;;;16.47;14.40;;;11.50;99.90;;;;;;4916274;29;20254;-70
2023/09/08 05:25:48;;;;;;;18.03;16.13;;;11.50;99.90;;;;;;4916453;29;20242;-69
2023/09/08 05:28:14;;;;;;;17.20;15.40;;;11.50;99.90;;;;;;4916299;29;20202;-69
2023/09/08 05:30:41;;;;;;;17.63;15.83;;;11.50;99.90;;;;;;4916061;29;20255;-70
2023/09/08 05:33:07;;;;;;;18.13;16.40;;;11.80;99.90;;;;;;4916376;29;20202;-70
2023/09/08 05:35:34;;;;;;;19.93;16.27;;;12.00;99.90;;;;;;4916091;29;20663;-70
2023/09/08 05:38:01;;;;;;;17.47;15.50;;;12.10;99.90;;;;;;4916313;29;20230;-70
2023/09/08 05:40:27;;;;;;;17.37;15.57;;;12.30;99.90;;;;;;4916252;29;20214;-70
2023/09/08 05:42:55;;;;;;;16.90;15.20;;;12.30;99.90;;;;;;4916010;29;20735;-70
2023/09/08 05:45:22;;;;;;;17.17;15.37;;;12.40;99.90;;;;;;4915835;29;20206;-70
2023/09/08 05:47:50;;;;;;;17.90;15.60;;;12.40;99.90;;;;;;4915901;29;20210;-70
2023/09/08 05:50:17;;;;;;;18.20;15.13;;;12.50;99.90;;;;;;4915813;29;20206;-70
2023/09/08 05:52:44;;;;;;;17.07;15.37;;;12.50;99.90;;;;;;4915870;29;20246;-70
2023/09/08 05:55:10;;;;;;;17.60;15.70;;;12.60;99.90;;;;;;4917818;29;20286;-70
2023/09/08 05:57:37;;;;;;;16.60;14.80;;;12.60;99.90;;;;;;4919788;29;20242;-70
2023/09/08 06:00:06;;;;;;;17.17;15.37;;;12.80;99.90;;;;;;4919538;29;20206;-70
2023/09/08 06:02:33;;;;;;;21.07;15.40;;;12.80;99.90;;;;;;4919726;29;20258;-70
2023/09/08 06:04:59;;;;;;;14.97;13.40;;;12.90;99.90;;;;;;4919690;29;20206;-70
2023/09/08 06:07:26;;;;;;;19.33;14.27;;;12.90;99.90;;;;;;4918495;29;20637;-70
2023/09/08 06:09:53;;;;;;;18.27;14.23;;;13.10;99.90;;;;;;4919330;29;20266;-70
2023/09/08 06:12:19;;;;;;;15.47;13.43;;;13.20;99.90;;;;;;4919378;29;20206;-70
2023/09/08 06:14:46;;;;;;;17.83;14.50;;;13.20;99.90;;;;;;4919308;29;20202;-70
2023/09/08 06:17:14;;;;;;;15.63;14.03;;;13.30;99.90;;;;;;4919157;29;20702;-70
2023/09/08 06:19:40;;;;;;;15.77;13.67;;;13.50;99.90;;;;;;4919656;29;20258;-70
2023/09/08 06:22:07;;;;;;;15.13;13.50;;;13.60;99.90;;;;;;4919367;29;20254;-70
2023/09/08 06:24:33;;;;;;;15.50;13.50;;;13.70;99.90;;;;;;4919538;29;20206;-70
2023/09/08 06:27:01;;;;;;;17.50;13.10;;;13.70;99.90;;;;;;4925234;29;20202;-70
2023/09/08 06:29:28;;;;;;;13.93;12.10;;;13.90;99.90;;;;;;4919095;29;20202;-70
2023/09/08 06:31:55;;;;;;;14.20;12.80;;;14.00;99.90;;;;;;4919316;29;20250;-70
2023/09/08 06:34:22;;;;;;;13.97;12.47;;;14.20;99.90;;;;;;4919197;29;20202;-70
2023/09/08 06:36:49;;;;;;;15.93;14.23;;;14.30;99.90;;;;;;4918935;29;20234;-70
2023/09/08 06:39:16;;;;;;;17.43;14.03;;;14.50;99.90;;;;;;4918718;29;20738;-70
2023/09/08 06:41:42;;;;;;;15.33;12.67;;;14.60;99.90;;;;;;4918466;29;20666;-69
2023/09/08 06:44:09;;;;;;;17.73;13.70;;;14.70;99.90;;;;;;4918832;29;20202;-70
2023/09/08 06:46:36;;;;;;;15.23;13.27;;;14.90;99.90;;;;;;4918631;29;20670;-70
2023/09/08 06:49:02;;;;;;;15.47;12.77;;;15.10;99.90;;;;;;4918600;29;20198;-70
2023/09/08 06:51:30;;;;;;;14.18;12.25;;;15.20;99.90;;;;;;4918773;29;20710;-70
2023/09/08 06:53:57;;;;;;;13.55;12.27;;;15.40;99.90;;;;;;4917594;29;20327;-70
2023/09/08 06:56:24;;;;;;;15.50;12.32;;;15.60;99.90;;;;;;4918325;29;20565;-70
2023/09/08 06:58:51;;;;;;;12.02;10.85;;;15.80;99.90;;;;;;4918687;29;20202;-70
2023/09/08 07:01:18;;;;;;;12.70;11.40;;;15.90;99.90;;;;;;4918649;29;20298;-70
2023/09/08 07:03:45;;;;;;;12.35;11.25;;;16.00;99.90;;;;;;4918830;29;20270;-70
2023/09/08 07:06:11;;;;;;;12.55;11.10;;;16.20;99.90;;;;;;4918599;29;20209;-70
2023/09/08 07:08:39;;;;;;;11.02;9.93;;;16.40;99.90;;;;;;4918498;29;20607;-70
2023/09/08 07:11:06;;;;;;;13.35;10.68;;;16.50;99.90;;;;;;4918513;29;20266;-70
2023/09/08 07:13:33;;;;;;;14.02;9.95;;;16.70;99.90;;;;;;4918789;29;20198;-70
2023/09/08 07:15:59;;;;;;;11.68;10.10;;;16.80;99.90;;;;;;4918461;29;20654;-70
2023/09/08 07:18:26;;;;;;;12.57;9.85;;;17.00;99.90;;;;;;4918463;29;20291;-70
2023/09/08 07:20:53;;;;;;;10.95;9.60;;;17.20;99.90;;;;;;4918258;29;20662;-70
2023/09/08 07:23:19;;;;;;;11.10;9.35;;;17.40;99.90;;;;;;4918512;29;20686;-70
2023/09/08 07:25:48;;;;;;;11.38;8.50;;;17.60;99.90;;;;;;4918508;29;20206;-70
2023/09/08 07:28:15;;;;;;;9.73;8.73;;;17.80;99.90;;;;;;4918687;29;20274;-70
2023/09/08 07:30:41;;;;;;;8.93;8.02;;;18.00;99.90;;;;;;4918307;29;20254;-70
2023/09/08 07:33:08;;;;;;;10.23;8.50;;;18.10;99.90;;;;;;4918206;29;20203;-70
2023/09/08 07:35:39;;;;;;;11.18;7.85;;;18.30;99.90;;;;;;4917787;29;20254;-70
2023/09/08 07:38:06;;;;;;;9.65;7.93;;;18.60;99.90;;;;;;4918013;29;20236;-70
2023/09/08 07:40:32;;;;;;;10.13;7.82;;;18.80;99.90;;;;;;4917824;29;20277;-70
2023/09/08 07:43:00;;;;;;;8.07;7.28;;;18.90;99.90;;;;;;4918050;29;20262;-70
2023/09/08 07:45:27;;;;;;;9.95;7.60;;;19.10;99.90;;;;;;4917667;29;20611;-70
2023/09/08 07:47:54;;;;;;;8.93;6.88;;;19.30;99.90;;;;;;4917612;29;20558;-69
2023/09/08 07:50:22;;;;;;;7.25;6.45;;;19.60;99.90;;;;;;4917665;29;20248;-69
2023/09/08 07:52:50;;;;;;;7.45;6.47;;;19.70;99.90;;;;;;4917598;29;20673;-69
2023/09/08 07:55:17;;;;;;;7.68;6.88;;;19.90;99.90;;;;;;4917396;29;20769;-69
2023/09/08 07:57:45;;;;;;;7.80;6.63;;;20.10;99.90;;;;;;4917629;29;20282;-69
2023/09/08 08:00:15;;;;;;;6.80;6.20;;;20.30;99.90;;;;;;4917491;29;20254;-69
2023/09/08 08:02:46;;;;;;;9.88;6.35;;;20.50;99.90;;;;;;4917389;29;20198;-69
2023/09/08 08:05:13;;;;;;;7.80;6.15;;;20.80;99.90;;;;;;4917351;29;20202;-70
2023/09/08 08:07:40;;;;;;;6.80;6.20;;;21.00;99.90;;;;;;4917603;29;20201;-69
2023/09/08 08:10:08;;;;;;;6.38;5.45;;;21.10;99.90;;;;;;4917448;29;20202;-69
2023/09/08 08:12:35;;;;;;;7.65;5.90;;;21.20;99.90;;;;;;4917340;29;20213;-69
2023/09/08 08:15:01;;;;;;;8.18;5.93;;;21.30;99.90;;;;;;4917394;29;20202;-70
2023/09/08 08:17:29;;;;;;;7.18;6.10;;;21.40;99.90;;;;;;4916766;29;20237;-70
2023/09/08 08:19:58;;;;;;;6.30;5.68;;;21.50;99.90;;;;;;4917107;29;20548;-70
2023/09/08 08:22:24;;;;;;;7.25;5.47;;;21.80;99.90;;;;;;4917321;29;20281;-70
2023/09/08 08:24:51;;;;;;;7.18;5.55;;;21.90;99.90;;;;;;4916859;29;20198;-70
2023/09/08 08:27:18;;;;;;;10.18;6.05;;;22.00;99.90;;;;;;4917170;29;20279;-70
2023/09/08 08:29:44;;;;;;;7.38;5.88;;;22.10;99.90;;;;;;4917019;29;20203;-70
2023/09/08 08:32:12;;;;;;;6.40;5.82;;;22.30;99.90;;;;;;4916846;29;20670;-70
2023/09/08 08:34:40;;;;;;;6.60;5.70;;;22.30;99.90;;;;;;4916920;29;20653;-70
2023/09/08 08:37:06;;;;;;;8.00;6.18;;;22.60;99.90;;;;;;4916927;29;20222;-70
2023/09/08 08:39:33;;;;;;;6.97;5.97;;;22.80;99.90;;;;;;4916926;29;20650;-71
2023/09/08 08:42:07;;;;;;;7.28;5.78;;;22.80;99.90;;;;;;4916771;29;20203;-70
2023/09/08 08:44:34;;;;;;;7.22;5.95;;;22.90;99.90;;;;;;4916806;29;20542;-70
2023/09/08 08:47:01;;;;;;;7.30;5.97;;;23.00;99.90;;;;;;4916567;29;20202;-71
2023/09/08 08:49:30;;;;;;;11.20;6.05;;;23.20;99.90;;;;;;4916981;29;20230;-71
2023/09/08 08:52:00;;;;;;;8.05;5.40;;;23.40;99.90;;;;;;4916609;29;20205;-71
2023/09/08 08:54:29;;;;;;;9.05;6.22;;;23.60;99.90;;;;;;4916653;29;20591;-71
2023/09/08 08:56:55;;;;;;;7.55;5.53;;;23.70;99.90;;;;;;4908788;29;20250;-71
2023/09/08 08:59:22;;;;;;;6.95;6.05;;;23.80;99.90;;;;;;4897904;29;20540;-71
2023/09/08 09:01:50;;;;;;;7.40;6.57;;;23.90;99.90;;;;;;4897437;29;20723;-71
2023/09/08 09:04:17;;;;;;;6.60;5.90;;;24.00;99.90;;;;;;4897775;29;20352;-71
2023/09/08 09:06:44;;;;;;;6.00;5.40;;;24.20;99.90;;;;;;4897522;29;20259;-71
2023/09/08 09:09:13;;;;;;;7.30;5.72;;;24.30;99.90;;;;;;4897529;29;20282;-71
2023/09/08 09:11:41;;;;;;;6.65;6.05;;;24.50;99.90;;;;;;4897452;29;20203;-70
2023/09/08 09:14:09;;;;;;;6.35;5.75;;;24.60;99.90;;;;;;4898096;29;20207;-71
2023/09/08 09:16:40;;;;;;;8.00;5.78;;;24.80;99.90;;;;;;4897627;29;20207;-71
2023/09/08 09:19:07;;;;;;;6.63;6.03;;;25.00;99.90;;;;;;4897589;29;20231;-71
2023/09/08 09:21:43;;;;;;;6.55;5.95;;;25.30;99.90;;;;;;4897564;29;20207;-71
2023/09/08 09:24:14;;;;;;;6.95;5.57;;;25.50;99.90;;;;;;4897701;29;20244;-70
2023/09/08 09:26:41;;;;;;;7.60;5.85;;;25.60;98.70;;;;;;4897780;29;20203;-72
2023/09/08 09:29:13;;;;;;;7.38;6.13;;;25.70;98.50;;;;;;4897771;29;20670;-72
2023/09/08 09:31:51;;;;;;;8.85;5.60;;;25.20;98.70;;;;;;4901494;29;20207;-70
2023/09/08 09:34:17;;;;;;;7.57;6.40;;;25.70;99.00;;;;;;4901276;29;20639;-71
2023/09/08 09:36:45;;;;;;;6.53;5.57;;;26.30;98.40;;;;;;4901196;29;20263;-71
2023/09/08 09:39:13;;;;;;;6.93;5.63;;;26.70;97.50;;;;;;4901216;29;20238;-70
2023/09/08 09:41:41;;;;;;;7.38;5.85;;;27.10;96.80;;;;;;4901278;29;20203;-72
2023/09/08 09:44:08;;;;;;;6.20;5.60;;;27.30;96.20;;;;;;4901204;29;20240;-81
2023/09/08 09:46:35;;;;;;;5.97;5.38;;;27.60;95.70;;;;;;4901394;29;20679;-70
2023/09/08 09:49:01;;;;;;;6.47;5.15;;;27.80;94.70;;;;;;4900951;29;20210;-70
2023/09/08 09:51:28;;;;;;;6.35;5.75;;;28.10;94.40;;;;;;4901094;29;20203;-70
2023/09/08 09:53:58;;;;;;;7.35;5.63;;;28.50;93.40;;;;;;4901090;29;20305;-70
2023/09/08 09:56:27;;;;;;;5.85;5.32;;;28.50;92.90;;;;;;4901154;29;20210;-70
2023/09/08 09:58:54;;;;;;;6.30;5.57;;;28.80;92.40;;;;;;4900907;29;20231;-70
2023/09/08 10:01:23;;;;;;;5.88;4.93;;;29.10;91.60;;;;;;4900871;29;20206;-70
2023/09/08 10:03:50;;;;;;;9.13;5.40;;;28.60;90.90;;;;;;4900615;29;20615;-70
2023/09/08 10:06:20;;;;;;;5.78;5.22;;;29.20;90.30;;;;;;4901058;29;20214;-70
2023/09/08 10:08:47;;;;;;;7.18;5.20;;;29.50;88.60;;;;;;4901011;29;20206;-70
2023/09/08 10:11:15;;;;;;;5.93;5.35;;;29.80;88.20;;;;;;4900827;29;20203;-70
2023/09/08 10:13:46;;;;;;;6.53;5.15;;;30.20;86.40;;;;;;4900675;29;20726;-70
2023/09/08 10:16:16;;;;;;;7.68;5.18;;;30.20;85.60;;;;;;4900755;29;20258;-70
2023/09/08 10:18:46;;;;;;;5.50;4.95;;;30.50;82.50;;;;;;4900815;29;20306;-70
2023/09/08 10:21:14;;;;;;;7.25;4.90;;;31.00;81.10;;;;;;4900894;29;20354;-70
2023/09/08 10:23:44;;;;;;;5.10;4.70;;;31.30;78.80;;;;;;4900632;29;20202;-70
2023/09/08 10:26:12;;;;;;;6.13;5.05;;;31.60;76.20;;;;;;4900533;29;20286;-70
2023/09/08 10:28:39;;;;;;;5.80;5.30;;;31.30;73.80;;;;;;4900527;29;20608;-70
2023/09/08 10:31:08;;;;;;;5.97;5.38;;;31.50;73.40;;;;;;4900355;29;20612;-71
2023/09/08 10:33:36;;;;;;;5.57;4.90;;;31.90;71.70;;;;;;4900435;29;20206;-70
2023/09/08 10:36:05;;;;;;;5.93;4.65;;;32.00;68.80;;;;;;4900401;29;20202;-70
2023/09/08 10:38:34;;;;;;;5.63;4.90;;;32.00;66.60;;;;;;4900317;29;20260;-70
2023/09/08 10:41:27;;;;;;;5.10;4.68;;;32.80;65.80;;;;;;4899675;29;20207;-70
2023/09/08 10:43:57;;;;;;;5.75;5.10;;;33.40;61.80;;;;;;4900341;29;20203;-71
2023/09/08 10:46:27;;;;;;;5.10;4.70;;;33.10;59.90;;;;;;4900281;29;20225;-70
2023/09/08 10:48:54;;;;;;;5.13;4.72;;;33.40;61.40;;;;;;4900212;29;20278;-70
2023/09/08 10:51:23;;;;;;;5.38;4.97;;;34.50;59.40;;;;;;4900052;29;20566;-70
2023/09/08 10:53:50;;;;;;;4.90;4.30;;;35.00;58.50;;;;;;4899815;29;20237;-70
2023/09/08 10:56:18;;;;;;;5.03;4.63;;;35.40;55.50;;;;;;4900215;29;20663;-70
2023/09/08 10:58:49;;;;;;;4.88;4.47;;;35.10;53.20;;;;;;4899972;29;20230;-70
2023/09/08 11:01:17;;;;;;;5.25;4.22;;;35.40;51.00;;;;;;4900048;29;20317;-70
2023/09/08 11:03:48;;;;;;;5.00;4.50;;;34.90;50.70;;;;;;4899889;29;20202;-70
2023/09/08 11:06:17;;;;;;;7.18;4.70;;;35.10;51.30;;;;;;4899828;29;20199;-70
2023/09/08 11:08:45;;;;;;;4.35;4.00;;;36.60;48.70;;;;;;4899700;29;20231;-70
2023/09/08 11:11:13;;;;;;;4.80;4.32;;;37.50;46.80;;;;;;4899789;29;20202;-71
2023/09/08 11:13:40;;;;;;;8.20;4.78;;;37.90;44.50;;;;;;4899820;29;20267;-72
2023/09/08 11:16:07;;;;;;;4.90;4.40;;;38.60;42.70;;;;;;4899664;29;20306;-71
2023/09/08 11:18:35;;;;;;;6.05;4.57;;;38.70;41.20;;;;;;4899525;29;20227;-71
2023/09/08 11:21:08;;;;;;;5.03;4.53;;;39.10;41.10;;;;;;4899388;29;20248;-71
2023/09/08 11:23:34;;;;;;;5.22;4.82;;;39.30;39.30;;;;;;4899682;29;20216;-71
2023/09/08 11:26:01;;;;;;;5.65;4.80;;;40.00;37.00;;;;;;4899549;29;20202;-71
2023/09/08 11:28:29;;;;;;;6.03;4.20;;;38.70;36.00;;;;;;4899488;29;20204;-71
2023/09/08 11:30:56;;;;;;;4.50;4.10;;;39.10;36.60;;;;;;4899226;29;20719;-71
2023/09/08 11:33:24;;;;;;;6.70;4.38;;;39.00;36.60;;;;;;4899217;29;20255;-70
2023/09/08 11:35:52;;;;;;;5.35;4.47;;;39.00;35.30;;;;;;4899364;29;20222;-71
2023/09/08 11:38:24;;;;;;;5.65;4.18;;;39.50;34.70;;;;;;4899226;29;20589;-71
2023/09/08 11:40:51;;;;;;;5.10;4.68;;;38.60;34.80;;;;;;4899231;29;20218;-71
2023/09/08 11:43:18;;;;;;;6.60;4.47;;;39.60;34.00;;;;;;4899128;29;20282;-71
2023/09/08 11:45:44;;;;;;;5.38;4.15;;;40.40;32.40;;;;;;4899043;29;20267;-71
2023/09/08 11:48:11;;;;;;;5.20;4.55;;;39.60;30.80;;;;;;4898877;29;20202;-71
2023/09/08 11:50:38;;;;;;;4.88;4.40;;;39.20;32.80;;;;;;4899143;29;20198;-71
2023/09/08 11:53:05;;;;;;;6.95;4.60;;;40.10;32.10;;;;;;4898052;29;20726;-71
2023/09/08 11:55:35;;;;;;;4.90;4.50;;;40.70;30.90;;;;;;4898937;29;20298;-71
2023/09/08 11:58:02;;;;;;;3.97;3.65;;;40.80;30.10;;;;;;4898837;29;20223;-71
2023/09/08 12:00:29;;;;;;;5.57;4.30;;;40.80;28.70;;;;;;4898771;29;20206;-71
2023/09/08 12:03:09;;;;;;;6.50;4.22;;;40.90;28.00;;;;;;4899032;29;20206;-71
2023/09/08 12:05:37;;;;;;;4.60;4.20;;;40.90;28.50;;;;;;4898867;29;20210;-71
2023/09/08 12:08:05;;;;;;;4.40;4.00;;;41.40;27.10;;;;;;4898747;29;20619;-71
2023/09/08 12:10:39;;;;;;;5.13;3.95;;;41.40;26.90;;;;;;4898544;29;20667;-71
2023/09/08 12:13:05;;;;;;;4.72;4.10;;;41.70;26.60;;;;;;4899053;29;20775;-71
2023/09/08 12:15:33;;;;;;;3.85;3.55;;;41.70;26.10;;;;;;4898765;29;20250;-71
2023/09/08 12:18:00;;;;;;;4.45;4.05;;;41.90;25.70;;;;;;4898606;29;20206;-71
2023/09/08 12:20:27;;;;;;;4.88;4.40;;;42.10;25.40;;;;;;4898750;29;20266;-71
2023/09/08 12:22:54;;;;;;;4.80;4.45;;;42.10;24.10;;;;;;4898449;29;20258;-71
2023/09/08 12:25:21;;;;;;;4.82;4.30;;;42.10;24.80;;;;;;4898341;29;20202;-71
2023/09/08 12:27:52;;;;;;;4.70;4.28;;;42.10;24.60;;;;;;4898743;29;20226;-71
2023/09/08 12:30:20;;;;;;;4.60;4.20;;;41.70;23.80;;;;;;4898572;29;20202;-71
2023/09/08 12:32:49;;;;;;;5.43;4.55;;;41.90;24.00;;;;;;4898354;29;20228;-71
2023/09/08 12:35:22;;;;;;;5.57;4.03;;;42.40;23.60;;;;;;4898348;29;20299;-71
2023/09/08 12:37:48;;;;;;;4.70;4.30;;;41.40;23.70;;;;;;4898247;29;20220;-71